Time;durP1;ratioP1;P1;durP2;ratioP2;P2;SDS_P1;SDS_P2;PMS_P1;PMS_P2;Temp;Humidity;BMP_temperature;BMP_pressure;BME280_temperature;BME280_humidity;BME280_pressure;Samples;Min_cycle;Max_cycle;Signal;HPM_P1;HPM_P2
2023/02/14 00:02:08;;;;;;;;;;;;;;;-0.17;58.15;102340.23;1841773;78;20119;-44
2023/02/14 00:04:41;;;;;;;;;;;;;;;-0.15;58.13;102334.67;1841410;78;20159;-40
2023/02/14 00:07:05;;;;;;;;;;;;;;;-0.11;58.11;102335.65;1841101;78;20124;-42
2023/02/14 00:09:33;;;;;;;;;;;;;;;-0.07;58.13;102331.92;1841322;78;20201;-42
2023/02/14 00:12:01;;;;;;;;;;;;;;;-0.03;58.15;102319.52;1842365;78;20123;-41
2023/02/14 00:17:16;;;;;;;;;;;;;;;0.13;58.27;102304.42;1841428;78;20124;-42
2023/02/14 00:19:44;;;;;;;;;;;;;;;0.21;58.37;102299.48;1841381;78;20607;-40
2023/02/14 00:22:12;;;;;;;;;;;;;;;0.25;58.25;102298.30;1841688;78;20118;-39
2023/02/14 00:24:39;;;;;;;;;;;;;;;0.27;58.17;102288.86;1817358;79;20121;-41
2023/02/14 00:27:07;;;;;;;;;;;;;;;0.31;58.12;102282.05;1817351;79;20113;-41
2023/02/14 00:29:35;;;;;;;;;;;;;;;0.34;58.29;102280.42;1817355;79;20121;-39
2023/02/14 00:32:03;;;;;;;;;;;;;;;0.41;58.27;102276.70;1817366;79;20203;-39
2023/02/14 00:34:32;;;;;;;;;;;;;;;0.46;58.30;102271.23;1838906;78;20221;-39
2023/02/14 00:37:00;;;;;;;;;;;;;;;0.47;58.13;102267.81;1841500;78;20103;-39
2023/02/14 00:39:27;;;;;;;;;;;;;;;0.45;58.13;102263.02;1841394;78;20127;-41
2023/02/14 00:41:55;;;;;;;;;;;;;;;0.45;58.11;102256.53;1845324;78;20119;-39
2023/02/14 00:44:23;;;;;;;;;;;;;;;0.44;58.11;102246.99;1847469;77;20170;-39
2023/02/14 00:46:51;;;;;;;;;;;;;;;0.44;58.10;102245.70;1847465;78;20404;-39
2023/02/14 00:49:19;;;;;;;;;;;;;;;0.48;58.31;102235.86;1847484;78;20213;-39
2023/02/14 00:51:47;;;;;;;;;;;;;;;0.52;58.22;102235.13;1847059;78;20119;-40
2023/02/14 00:54:14;;;;;;;;;;;;;;;0.54;58.21;102226.97;1838222;77;20126;-40
2023/02/14 00:56:42;;;;;;;;;;;;;;;0.56;58.17;102223.57;1829724;78;20110;-40
2023/02/14 00:59:10;;;;;;;;;;;;;;;0.58;58.13;102212.82;1832081;77;20983;-44
2023/02/14 01:01:38;;;;;;;;;;;;;;;0.62;58.30;102208.59;1829698;78;20487;-42
2023/02/14 01:04:06;;;;;;;;;;;;;;;0.64;58.20;102212.09;1831927;77;20122;-41
2023/02/14 01:06:34;;;;;;;;;;;;;;;0.62;58.29;102200.81;1829810;77;20160;-45
2023/02/14 01:09:02;;;;;;;;;;;;;;;0.63;58.24;102194.81;1831896;78;20153;-42
2023/02/14 01:11:32;;;;;;;;;;;;;;;0.63;58.30;102191.31;1829894;77;20118;-44
2023/02/14 01:13:59;;;;;;;;;;;;;;;0.63;58.34;102187.03;1829779;78;20123;-44
2023/02/14 01:16:28;;;;;;;;;;;;;;;0.67;58.32;102185.39;1831787;77;20169;-42
2023/02/14 01:18:57;;;;;;;;;;;;;;;0.69;58.26;102184.58;1829803;78;20123;-45
2023/02/14 01:21:26;;;;;;;;;;;;;;;0.70;58.29;102181.56;1831888;77;20118;-46
2023/02/14 01:23:57;;;;;;;;;;;;;;;0.74;58.35;102180.39;1829968;76;20114;-43
2023/02/14 01:26:25;;;;;;;;;;;;;;;0.75;58.36;102169.59;1831841;78;20165;-45
2023/02/14 01:28:53;;;;;;;;;;;;;;;0.75;58.30;102169.16;1831877;78;20260;-43
2023/02/14 01:31:22;;;;;;;;;;;;;;;0.76;58.32;102164.88;1829814;78;20265;-43
2023/02/14 01:33:50;;;;;;;;;;;;;;;0.78;58.31;102161.03;1829796;77;20111;-43
2023/02/14 01:36:19;;;;;;;;;;;;;;;0.79;58.32;102161.47;1831829;78;20122;-46
2023/02/14 01:38:47;;;;;;;;;;;;;;;0.82;58.26;102164.15;1832069;76;20106;-42
2023/02/14 01:41:16;;;;;;;;;;;;;;;0.83;58.27;102156.80;1821045;78;20120;-45
2023/02/14 01:43:57;;;;;;;;;;;;;;;0.86;58.27;102147.81;1805406;78;20166;-41
2023/02/14 01:46:26;;;;;;;;;;;;;;;0.90;58.27;102145.31;1803537;80;20129;-42
2023/02/14 01:49:01;;;;;;;;;;;;;;;0.96;58.33;102135.53;1803530;80;20163;-41
2023/02/14 01:51:30;;;;;;;;;;;;;;;1.01;58.57;102126.11;1805390;78;20124;-42
2023/02/14 01:53:58;;;;;;;;;;;;;;;1.06;58.47;102116.72;1819651;77;20212;-39
2023/02/14 01:56:27;;;;;;;;;;;;;;;1.17;58.67;102110.91;1874493;77;20114;-42
2023/02/14 01:58:56;;;;;;;;;;;;;;;1.26;58.95;102086.45;1872948;77;20384;-40
2023/02/14 02:01:24;;;;;;;;;;;;;;;1.46;59.17;102099.41;1874537;77;20637;-45
2023/02/14 02:03:56;;;;;;;;;;;;;;;1.58;58.92;102095.31;1874630;77;20399;-43
2023/02/14 02:06:25;;;;;;;;;;;;;;;1.65;59.03;102091.56;1874548;77;20423;-43
2023/02/14 02:09:00;;;;;;;;;;;;;;;1.74;59.12;102070.09;1873493;77;20117;-41
2023/02/14 02:11:29;;;;;;;;;;;;;;;1.88;59.15;102051.75;1874161;77;20409;-43
2023/02/14 02:13:57;;;;;;;;;;;;;;;2.05;59.00;102068.06;1874558;77;20118;-44
2023/02/14 02:16:29;;;;;;;;;;;;;;;2.18;58.87;102058.75;1874619;77;20114;-43
2023/02/14 02:18:58;;;;;;;;;;;;;;;2.28;58.76;102061.50;1873409;77;20152;-42
2023/02/14 02:21:43;;;;;;;;;;;;;;;2.31;58.52;102065.46;1872591;77;20157;-42
2023/02/14 02:24:15;;;;;;;;;;;;;;;2.36;58.67;102061.65;1787833;79;20168;-43
2023/02/14 02:26:53;;;;;;;;;;;;;;;2.41;58.58;102057.81;1823819;78;20154;-40
2023/02/14 02:29:28;;;;;;;;;;;;;;;2.45;58.45;102051.80;1843651;78;20441;-43
2023/02/14 02:32:00;;;;;;;;;;;;;;;2.53;58.34;102055.81;1855830;77;20126;-41
2023/02/14 02:34:33;;;;;;;;;;;;;;;2.56;58.31;102048.94;1874568;77;20157;-42
2023/02/14 02:37:11;;;;;;;;;;;;;;;2.60;58.21;102045.55;1874599;77;20106;-44
2023/02/14 02:39:40;;;;;;;;;;;;;;;2.63;58.16;102037.77;1874541;77;20118;-42
2023/02/14 02:42:25;;;;;;;;;;;;;;;2.67;58.10;102030.49;1874487;77;20151;-44
2023/02/14 02:45:01;;;;;;;;;;;;;;;2.75;58.02;102026.69;1874595;77;20169;-45
2023/02/14 02:47:33;;;;;;;;;;;;;;;2.82;57.95;102021.13;1841657;78;20124;-42
2023/02/14 02:53:09;;;;;;;;;;;;;;;2.88;58.38;102003.88;1849219;77;20633;-41
2023/02/14 02:58:39;;;;;;;;;;;;;;;2.90;58.62;102011.71;1841453;78;20178;-39
2023/02/14 03:01:09;;;;;;;;;;;;;;;2.89;59.20;101947.52;1841739;78;20153;-39
2023/02/14 03:06:23;;;;;;;;;;;;;;;2.95;59.45;101956.72;1840951;78;20277;-38
2023/02/14 03:08:51;;;;;;;;;;;;;;;2.98;59.29;101958.47;1841375;78;20111;-38
2023/02/14 03:11:19;;;;;;;;;;;;;;;2.99;58.92;101957.19;1841480;78;20107;-46
2023/02/14 03:13:48;;;;;;;;;;;;;;;3.02;58.59;101922.07;1847116;78;20151;-44
2023/02/14 03:16:24;;;;;;;;;;;;;;;3.04;58.17;101936.00;1847603;78;20119;-44
2023/02/14 03:21:55;;;;;;;;;;;;;;;3.07;56.94;101941.22;1847700;78;20123;-43
2023/02/14 03:24:40;;;;;;;;;;;;;;;3.11;56.54;101923.05;1841185;77;20264;-47
2023/02/14 03:27:10;;;;;;;;;;;;;;;3.11;56.07;101932.16;1841413;78;20146;-38
2023/02/14 03:29:45;;;;;;;;;;;;;;;3.13;56.14;101925.23;1841665;77;20123;-39
2023/02/14 03:32:18;;;;;;;;;;;;;;;3.13;56.15;101917.42;1840445;78;20664;-39
2023/02/14 03:34:59;;;;;;;;;;;;;;;3.15;56.41;101928.72;1847124;78;20103;-40
2023/02/14 03:37:31;;;;;;;;;;;;;;;3.17;56.73;101892.77;1847621;76;20123;-40
2023/02/14 03:40:07;;;;;;;;;;;;;;;3.21;57.17;101896.23;1847583;78;20146;-41
2023/02/14 03:42:45;;;;;;;;;;;;;;;3.24;57.65;101919.71;1844089;78;20178;-39
2023/02/14 03:45:15;;;;;;;;;;;;;;;3.24;57.87;101896.28;1847574;76;20115;-39
2023/02/14 03:47:43;;;;;;;;;;;;;;;3.27;57.91;101899.79;1847614;78;20104;-39
2023/02/14 03:50:12;;;;;;;;;;;;;;;3.30;57.80;101854.67;1844346;78;20123;-39
2023/02/14 03:52:41;;;;;;;;;;;;;;;3.32;57.49;101850.38;1841539;78;20150;-39
2023/02/14 03:55:09;;;;;;;;;;;;;;;3.32;57.31;101841.27;1841615;78;20154;-39
2023/02/14 03:57:51;;;;;;;;;;;;;;;3.33;56.84;101867.73;1841310;78;20533;-41
2023/02/14 04:00:19;;;;;;;;;;;;;;;3.36;56.56;101866.47;1841324;77;20124;-39
2023/02/14 04:02:51;;;;;;;;;;;;;;;3.37;56.46;101834.78;1841672;78;20115;-40
2023/02/14 04:05:20;;;;;;;;;;;;;;;3.37;56.46;101860.38;1841423;78;20116;-38
2023/02/14 04:07:49;;;;;;;;;;;;;;;3.40;56.74;101800.98;1840616;78;20401;-38
2023/02/14 04:10:18;;;;;;;;;;;;;;;3.41;57.01;101819.22;1841395;78;20377;-39
2023/02/14 04:12:46;;;;;;;;;;;;;;;3.45;57.36;101844.41;1842489;76;20397;-40
2023/02/14 04:15:14;;;;;;;;;;;;;;;3.46;57.75;101827.05;1847460;78;20106;-39
2023/02/14 04:20:29;;;;;;;;;;;;;;;3.48;58.63;101861.34;1847130;78;20397;-39
2023/02/14 04:22:56;;;;;;;;;;;;;;;3.50;59.22;101885.23;1847617;78;20135;-39
2023/02/14 04:25:24;;;;;;;;;;;;;;;3.50;59.72;101830.55;1846058;78;20167;-39
2023/02/14 04:27:52;;;;;;;;;;;;;;;3.50;59.75;101857.89;1844392;78;20154;-39
2023/02/14 04:30:21;;;;;;;;;;;;;;;3.48;59.84;101883.48;1841354;78;20240;-39
2023/02/14 04:32:49;;;;;;;;;;;;;;;3.51;59.76;101873.98;1841836;78;20516;-39
2023/02/14 04:35:17;;;;;;;;;;;;;;;3.51;59.64;101868.77;1844401;77;20123;-39
2023/02/14 04:37:45;;;;;;;;;;;;;;;3.50;59.78;101861.80;1847664;78;20153;-40
2023/02/14 04:40:15;;;;;;;;;;;;;;;3.48;59.86;101820.98;1847703;78;20162;-40
2023/02/14 04:42:42;;;;;;;;;;;;;;;3.52;59.84;101863.98;1846975;78;20119;-40
2023/02/14 04:45:10;;;;;;;;;;;;;;;3.53;59.93;101845.77;1847179;78;20373;-40
2023/02/14 04:47:38;;;;;;;;;;;;;;;3.53;60.10;101883.53;1847660;78;20154;-40
2023/02/14 04:50:06;;;;;;;;;;;;;;;3.55;60.05;101875.73;1847029;78;20158;-41
2023/02/14 04:52:34;;;;;;;;;;;;;;;3.56;60.11;101844.91;1817493;79;20216;-43
2023/02/14 04:55:03;;;;;;;;;;;;;;;3.58;60.08;101874.44;1817456;79;20121;-41
2023/02/14 04:57:31;;;;;;;;;;;;;;;3.59;59.68;101833.22;1849083;77;20230;-40
2023/02/14 04:59:58;;;;;;;;;;;;;;;3.61;59.43;101832.36;1853906;77;20172;-42
2023/02/14 05:02:26;;;;;;;;;;;;;;;3.64;58.85;101838.91;1853344;77;20168;-40
2023/02/14 05:04:54;;;;;;;;;;;;;;;3.67;58.63;101865.39;1853894;77;20183;-42
2023/02/14 05:07:22;;;;;;;;;;;;;;;3.68;58.42;101854.13;1853886;77;20176;-40
2023/02/14 05:09:49;;;;;;;;;;;;;;;3.69;58.43;101855.89;1851277;77;20239;-40
2023/02/14 05:12:17;;;;;;;;;;;;;;;3.73;58.10;101826.38;1853849;77;20114;-39
2023/02/14 05:14:45;;;;;;;;;;;;;;;3.79;57.75;101849.00;1848574;77;20632;-41
2023/02/14 05:17:13;;;;;;;;;;;;;;;3.83;57.43;101861.17;1821732;79;20116;-40
2023/02/14 05:19:41;;;;;;;;;;;;;;;3.88;57.29;101852.11;1834533;77;20123;-40
2023/02/14 05:22:09;;;;;;;;;;;;;;;3.89;57.31;101869.47;1847889;78;20150;-41
2023/02/14 05:24:36;;;;;;;;;;;;;;;3.91;57.65;101867.33;1847964;78;20158;-40
2023/02/14 05:27:04;;;;;;;;;;;;;;;3.94;57.59;101871.68;1847966;78;20111;-39
2023/02/14 05:29:32;;;;;;;;;;;;;;;3.95;57.58;101863.02;1848259;77;20173;-40
2023/02/14 05:31:59;;;;;;;;;;;;;;;3.95;57.46;101853.89;1847959;78;20107;-40
2023/02/14 05:34:27;;;;;;;;;;;;;;;3.96;57.06;101864.73;1848116;77;20150;-40
2023/02/14 05:36:56;;;;;;;;;;;;;;;3.96;56.70;101859.52;1847838;78;20163;-40
2023/02/14 05:39:24;;;;;;;;;;;;;;;3.97;56.36;101856.07;1847978;78;20154;-40
2023/02/14 05:41:51;;;;;;;;;;;;;;;4.00;56.21;101849.55;1848217;77;20120;-39
2023/02/14 05:44:20;;;;;;;;;;;;;;;4.03;55.80;101845.67;1847948;78;20119;-40
2023/02/14 05:46:47;;;;;;;;;;;;;;;4.05;55.67;101856.53;1847982;78;20157;-40
2023/02/14 05:49:15;;;;;;;;;;;;;;;4.08;55.26;101851.79;1848548;77;20186;-39
2023/02/14 05:51:43;;;;;;;;;;;;;;;4.14;55.22;101853.12;1853800;77;20173;-40
2023/02/14 05:54:10;;;;;;;;;;;;;;;4.21;55.09;101856.64;1853854;77;20139;-40
2023/02/14 05:56:38;;;;;;;;;;;;;;;4.28;55.04;101851.00;1856560;77;20123;-39
2023/02/14 05:59:06;;;;;;;;;;;;;;;4.34;54.65;101832.80;1862535;77;20144;-41
2023/02/14 06:01:33;;;;;;;;;;;;;;;4.44;54.64;101834.56;1862454;77;20384;-40
2023/02/14 06:04:01;;;;;;;;;;;;;;;4.50;54.76;101839.83;1862465;76;20149;-41
2023/02/14 06:06:29;;;;;;;;;;;;;;;4.52;54.91;101845.91;1862520;77;20118;-40
2023/02/14 06:08:57;;;;;;;;;;;;;;;4.52;55.23;101840.70;1862523;77;20122;-40
2023/02/14 06:11:24;;;;;;;;;;;;;;;4.52;55.52;101837.19;1862469;77;20411;-42
2023/02/14 06:13:52;;;;;;;;;;;;;;;4.50;55.78;101835.91;1862527;77;20110;-40
2023/02/14 06:16:20;;;;;;;;;;;;;;;4.48;55.99;101823.71;1862511;77;20118;-41
2023/02/14 06:18:47;;;;;;;;;;;;;;;4.46;56.02;101827.61;1862449;77;20126;-40
2023/02/14 06:21:15;;;;;;;;;;;;;;;4.46;56.04;101826.31;1862428;77;20201;-39
2023/02/14 06:23:43;;;;;;;;;;;;;;;4.45;56.13;101818.92;1862532;77;20150;-39
2023/02/14 06:26:11;;;;;;;;;;;;;;;4.43;56.21;101820.66;1862646;77;20127;-40
2023/02/14 06:28:38;;;;;;;;;;;;;;;4.39;56.21;101809.78;1862545;77;20122;-40
2023/02/14 06:31:06;;;;;;;;;;;;;;;4.39;56.56;101821.93;1862338;77;20153;-39
2023/02/14 06:33:34;;;;;;;;;;;;;;;4.38;56.86;101813.69;1862469;77;20158;-40
2023/02/14 06:36:01;;;;;;;;;;;;;;;4.39;56.94;101808.89;1862516;77;20118;-39
2023/02/14 06:38:29;;;;;;;;;;;;;;;4.38;57.26;101788.91;1862491;76;20119;-40
2023/02/14 06:40:58;;;;;;;;;;;;;;;4.38;57.32;101778.05;1862543;77;20178;-40
2023/02/14 06:43:26;;;;;;;;;;;;;;;4.40;57.49;101781.52;1861954;77;20177;-40
2023/02/14 06:45:54;;;;;;;;;;;;;;;4.39;57.47;101776.30;1862471;77;20118;-39
2023/02/14 06:48:21;;;;;;;;;;;;;;;4.39;57.44;101769.77;1862535;77;20178;-40
2023/02/14 06:50:49;;;;;;;;;;;;;;;4.39;57.39;101758.05;1862751;77;20119;-39
2023/02/14 06:53:17;;;;;;;;;;;;;;;4.39;57.40;101756.73;1862676;77;20110;-39
2023/02/14 06:55:45;;;;;;;;;;;;;;;4.45;57.21;101763.30;1862861;77;20149;-39
2023/02/14 06:58:13;;;;;;;;;;;;;;;4.46;57.08;101714.16;1840077;77;20127;-40
2023/02/14 07:00:41;;;;;;;;;;;;;;;4.46;57.22;101720.69;1824936;78;20112;-39
2023/02/14 07:03:09;;;;;;;;;;;;;;;4.48;57.37;101743.72;1805361;78;20152;-39
2023/02/14 07:05:37;;;;;;;;;;;;;;;4.48;57.49;101731.98;1803500;80;20199;-40
2023/02/14 07:08:06;;;;;;;;;;;;;;;4.46;57.63;101745.45;1803513;80;20153;-39
2023/02/14 07:10:34;;;;;;;;;;;;;;;4.44;58.04;101740.67;1803460;80;20411;-40
2023/02/14 07:13:02;;;;;;;;;;;;;;;4.40;58.32;101727.20;1803474;80;20605;-40
2023/02/14 07:15:30;;;;;;;;;;;;;;;4.40;58.51;101728.50;1805376;78;20120;-39
2023/02/14 07:17:57;;;;;;;;;;;;;;;4.40;58.90;101721.98;1803458;80;20162;-40
2023/02/14 07:20:25;;;;;;;;;;;;;;;4.42;58.97;101708.52;1803504;80;20116;-40
2023/02/14 07:22:53;;;;;;;;;;;;;;;4.42;59.17;101726.77;1803507;80;20124;-39
2023/02/14 07:25:21;;;;;;;;;;;;;;;4.39;59.48;101696.76;1805291;78;20117;-39
2023/02/14 07:27:49;;;;;;;;;;;;;;;4.38;60.50;101703.72;1805355;78;20112;-39
2023/02/14 07:30:17;;;;;;;;;;;;;;;4.38;61.07;101694.59;1803471;80;20172;-39
2023/02/14 07:32:45;;;;;;;;;;;;;;;4.36;62.22;101725.46;1805352;78;20155;-38
2023/02/14 07:35:13;;;;;;;;;;;;;;;4.28;62.62;101724.55;1807159;78;20278;-39
2023/02/14 07:37:40;;;;;;;;;;;;;;;4.19;64.22;101665.02;1803411;80;20157;-44
2023/02/14 07:40:08;;;;;;;;;;;;;;;4.06;65.39;101694.09;1803518;80;20168;-39
2023/02/14 07:42:36;;;;;;;;;;;;;;;3.95;66.28;101696.23;1803512;80;20202;-39
2023/02/14 07:45:06;;;;;;;;;;;;;;;3.87;66.51;101693.57;1803556;80;20143;-43
2023/02/14 07:47:33;;;;;;;;;;;;;;;3.83;67.12;101696.59;1805287;78;20117;-41
2023/02/14 07:50:01;;;;;;;;;;;;;;;3.79;67.49;101662.28;1803595;78;20121;-41
2023/02/14 07:52:29;;;;;;;;;;;;;;;3.84;67.51;101677.95;1803417;80;20125;-42
2023/02/14 07:54:57;;;;;;;;;;;;;;;3.90;67.59;101664.07;1805294;78;20207;-38
2023/02/14 07:57:25;;;;;;;;;;;;;;;3.89;68.16;101657.97;1829991;77;20122;-38
2023/02/14 07:59:52;;;;;;;;;;;;;;;3.80;69.12;101664.04;1847573;78;20123;-39
2023/02/14 08:02:20;;;;;;;;;;;;;;;3.74;69.31;101664.00;1846688;78;20119;-38
2023/02/14 08:04:48;;;;;;;;;;;;;;;3.72;69.34;101644.89;1846297;78;20154;-39
2023/02/14 08:07:15;;;;;;;;;;;;;;;3.68;69.12;101653.56;1845911;78;20189;-37
2023/02/14 08:09:45;;;;;;;;;;;;;;;3.66;69.51;101660.50;1847195;78;20127;-37
2023/02/14 08:16:03;;;;;;;;;;;;;;;3.65;70.43;101660.05;1841376;78;20166;-39
2023/02/14 08:17:28;;;;;;;;;;;;;;;3.62;70.50;101650.94;1838318;78;20119;-37
2023/02/14 08:19:55;;;;;;;;;;;;;;;3.56;71.05;101649.19;1842092;77;20119;-40
2023/02/14 08:22:23;;;;;;;;;;;;;;;3.54;70.73;101645.70;1845901;78;20143;-39
2023/02/14 08:24:51;;;;;;;;;;;;;;;3.56;71.55;101628.76;1861649;76;20113;-37
2023/02/14 08:27:18;;;;;;;;;;;;;;;3.54;71.56;101640.50;1866137;76;20123;-39
2023/02/14 08:29:46;;;;;;;;;;;;;;;3.56;72.40;101630.06;1841378;78;20107;-38
2023/02/14 08:32:14;;;;;;;;;;;;;;;3.57;73.12;101632.67;1842520;78;20154;-38
2023/02/14 08:34:42;;;;;;;;;;;;;;;3.61;72.79;101624.00;1840911;78;20154;-36
2023/02/14 08:37:10;;;;;;;;;;;;;;;3.64;73.21;101603.63;1842085;78;20154;-37
2023/02/14 08:39:38;;;;;;;;;;;;;;;3.69;73.30;101605.83;1841373;78;20151;-40
2023/02/14 08:42:06;;;;;;;;;;;;;;;3.77;72.69;101597.59;1844892;78;20119;-37
2023/02/14 08:44:33;;;;;;;;;;;;;;;3.82;72.63;101597.17;1847346;78;20154;-37
2023/02/14 08:47:01;;;;;;;;;;;;;;;3.87;72.62;101589.35;1846505;78;20146;-38
2023/02/14 08:49:29;;;;;;;;;;;;;;;3.90;72.60;101594.58;1846357;78;20123;-42
2023/02/14 08:51:57;;;;;;;;;;;;;;;3.94;72.42;101583.73;1844933;78;20150;-43
2023/02/14 08:54:24;;;;;;;;;;;;;;;3.94;72.02;101582.43;1846025;78;20111;-40
2023/02/14 08:56:52;;;;;;;;;;;;;;;3.94;71.70;101547.25;1841465;78;20120;-44
2023/02/14 08:59:20;;;;;;;;;;;;;;;3.96;71.33;101563.76;1830100;78;20590;-44
2023/02/14 09:01:47;;;;;;;;;;;;;;;3.97;71.19;101561.16;1841742;78;20163;-44
2023/02/14 09:04:15;;;;;;;;;;;;;;;4.00;71.12;101548.55;1841290;78;20150;-42
2023/02/14 09:06:43;;;;;;;;;;;;;;;4.03;70.88;101553.34;1841537;78;20132;-42
2023/02/14 09:09:11;;;;;;;;;;;;;;;4.07;70.84;101552.91;1846295;78;20146;-42
2023/02/14 09:11:38;;;;;;;;;;;;;;;4.05;70.72;101546.38;1846964;78;20127;-41
2023/02/14 09:14:06;;;;;;;;;;;;;;;4.04;71.21;101541.20;1870461;76;20116;-46
2023/02/14 09:16:34;;;;;;;;;;;;;;;4.01;71.43;101542.05;1860838;76;20397;-43
2023/02/14 09:19:01;;;;;;;;;;;;;;;4.00;71.35;101532.92;1844852;78;20153;-45
2023/02/14 09:21:29;;;;;;;;;;;;;;;3.98;71.43;101531.61;1847136;78;20111;-45
2023/02/14 09:23:57;;;;;;;;;;;;;;;3.98;71.32;101530.75;1847812;78;20250;-42
2023/02/14 09:26:25;;;;;;;;;;;;;;;3.96;71.62;101511.20;1847592;78;20111;-44
2023/02/14 09:28:52;;;;;;;;;;;;;;;3.97;71.67;101493.41;1847135;78;20150;-41
2023/02/14 09:31:21;;;;;;;;;;;;;;;4.00;71.38;101510.36;1845050;78;20124;-42
2023/02/14 09:36:36;;;;;;;;;;;;;;;4.04;71.37;101502.11;1847499;77;20123;-43
2023/02/14 09:39:04;;;;;;;;;;;;;;;4.06;71.41;101492.55;1846982;78;20170;-42
2023/02/14 09:41:50;;;;;;;;;;;;;;;4.07;71.31;101492.97;1846690;78;20125;-40
2023/02/14 09:44:19;;;;;;;;;;;;;;;4.10;71.26;101483.85;1847677;78;20166;-41
2023/02/14 09:46:48;;;;;;;;;;;;;;;4.14;71.10;101473.85;1846941;78;20154;-39
2023/02/14 09:49:17;;;;;;;;;;;;;;;4.19;70.97;101453.02;1841616;78;20120;-39
2023/02/14 09:51:47;;;;;;;;;;;;;;;4.22;70.81;101448.66;1844445;78;20146;-40
2023/02/14 09:54:17;;;;;;;;;;;;;;;4.28;70.66;101448.19;1847115;78;20103;-41
2023/02/14 09:56:47;;;;;;;;;;;;;;;4.35;70.37;101446.02;1847629;78;20382;-42
2023/02/14 09:59:16;;;;;;;;;;;;;;;4.41;70.18;101438.20;1846805;76;20149;-39
2023/02/14 10:01:45;;;;;;;;;;;;;;;4.51;69.89;101451.63;1847003;78;20110;-41
2023/02/14 10:04:14;;;;;;;;;;;;;;;4.56;69.50;101434.23;1847411;76;20153;-40
2023/02/14 10:06:46;;;;;;;;;;;;;;;4.66;69.14;101424.63;1847053;78;20400;-41
2023/02/14 10:09:15;;;;;;;;;;;;;;;4.77;68.77;101423.28;1847637;78;20150;-39
2023/02/14 10:11:45;;;;;;;;;;;;;;;4.94;68.61;101420.19;1846937;76;20151;-39
2023/02/14 10:14:14;;;;;;;;;;;;;;;5.09;67.59;101407.90;1828953;78;20180;-40
2023/02/14 10:16:46;;;;;;;;;;;;;;;5.18;66.92;101336.05;1830786;78;20120;-39
2023/02/14 10:19:18;;;;;;;;;;;;;;;5.19;66.15;101392.63;1847603;78;20123;-40
2023/02/14 10:21:53;;;;;;;;;;;;;;;5.27;66.31;101384.29;1847684;76;20162;-39
2023/02/14 10:24:23;;;;;;;;;;;;;;;5.40;65.79;101374.20;1847379;77;20123;-41
2023/02/14 10:26:52;;;;;;;;;;;;;;;5.49;65.21;101369.78;1842404;78;20186;-41
2023/02/14 10:29:20;;;;;;;;;;;;;;;5.56;65.31;101358.41;1840627;78;20154;-39
2023/02/14 10:31:56;;;;;;;;;;;;;;;5.64;64.97;101357.88;1844897;76;20170;-41
2023/02/14 10:34:40;;;;;;;;;;;;;;;5.65;64.64;101369.22;1841473;78;20400;-41
2023/02/14 10:37:25;;;;;;;;;;;;;;;5.53;64.40;101363.23;1841355;78;20197;-43
2023/02/14 10:40:11;;;;;;;;;;;;;;;5.43;65.36;101354.17;1840437;78;20569;-39
2023/02/14 10:42:52;;;;;;;;;;;;;;;5.38;65.60;101325.02;1844707;78;20147;-41
2023/02/14 10:45:27;;;;;;;;;;;;;;;5.33;66.12;101337.27;1847388;78;20111;-40
2023/02/14 10:48:15;;;;;;;;;;;;;;;5.32;66.83;101323.77;1847289;76;20119;-40
2023/02/14 10:50:47;;;;;;;;;;;;;;;5.35;67.55;101295.02;1825788;76;20107;-42
2023/02/14 10:53:17;;;;;;;;;;;;;;;5.36;67.93;101313.72;1843963;76;20120;-43
2023/02/14 10:56:05;;;;;;;;;;;;;;;5.35;67.93;101313.30;1842474;76;20123;-42
2023/02/14 10:58:34;;;;;;;;;;;;;;;5.33;68.28;101322.90;1862988;76;20123;-41
2023/02/14 11:01:04;;;;;;;;;;;;;;;5.30;68.35;101304.64;1859476;77;20110;-47
2023/02/14 11:03:32;;;;;;;;;;;;;;;5.28;68.70;101306.84;1860844;77;20156;-42
2023/02/14 11:06:00;;;;;;;;;;;;;;;5.28;68.98;101300.31;1832291;77;20379;-42
2023/02/14 11:08:39;;;;;;;;;;;;;;;5.22;69.19;101306.01;1862186;77;20423;-41
2023/02/14 11:11:20;;;;;;;;;;;;;;;5.15;69.65;101294.33;1864112;76;20118;-41
2023/02/14 11:13:48;;;;;;;;;;;;;;;5.06;70.33;101276.12;1846165;77;20138;-39
2023/02/14 11:16:20;;;;;;;;;;;;;;;4.99;71.13;101288.34;1862616;77;20149;-41
2023/02/14 11:18:49;;;;;;;;;;;;;;;4.95;71.11;101295.77;1861809;76;20173;-39
2023/02/14 11:21:19;;;;;;;;;;;;;;;4.84;72.20;101277.57;1853480;77;20149;-39
2023/02/14 11:23:48;;;;;;;;;;;;;;;4.72;72.49;101302.02;1862608;77;20141;-43
2023/02/14 11:26:23;;;;;;;;;;;;;;;4.65;72.92;101275.53;1862814;77;20118;-40
2023/02/14 11:28:52;;;;;;;;;;;;;;;4.60;73.06;101278.59;1868280;76;20122;-42
2023/02/14 11:31:22;;;;;;;;;;;;;;;4.61;73.07;101258.14;1862908;76;20123;-38
2023/02/14 11:33:50;;;;;;;;;;;;;;;4.58;73.24;101261.64;1862877;76;20106;-38
2023/02/14 11:36:17;;;;;;;;;;;;;;;4.57;74.03;101266.42;1862785;77;20272;-45
2023/02/14 11:38:47;;;;;;;;;;;;;;;4.51;73.95;101239.08;1862588;77;20119;-42
2023/02/14 11:41:16;;;;;;;;;;;;;;;4.49;73.92;101247.80;1863353;76;20115;-45
2023/02/14 11:43:44;;;;;;;;;;;;;;;4.53;74.35;101237.77;1862701;77;20380;-43
2023/02/14 11:46:16;;;;;;;;;;;;;;;4.54;74.26;101235.16;1862725;77;20146;-42
2023/02/14 11:48:55;;;;;;;;;;;;;;;4.49;74.09;101233.45;1863390;76;20110;-45
2023/02/14 11:51:27;;;;;;;;;;;;;;;4.43;74.22;101222.18;1861376;77;20114;-42
2023/02/14 11:53:59;;;;;;;;;;;;;;;4.36;74.41;101220.92;1860826;77;20171;-44
2023/02/14 11:56:27;;;;;;;;;;;;;;;4.35;74.31;101198.32;1862245;77;20106;-40
2023/02/14 11:58:57;;;;;;;;;;;;;;;4.32;74.54;101202.27;1859151;77;20111;-41
2023/02/14 12:01:33;;;;;;;;;;;;;;;4.27;74.92;101198.82;1837736;77;20123;-40
2023/02/14 12:04:02;;;;;;;;;;;;;;;4.20;75.04;101197.53;1831546;77;20157;-39
2023/02/14 12:06:31;;;;;;;;;;;;;;;4.22;75.07;101189.70;1831773;77;20118;-45
2023/02/14 12:09:13;;;;;;;;;;;;;;;4.25;75.84;101203.59;1831001;78;20200;-43
2023/02/14 12:11:41;;;;;;;;;;;;;;;4.25;74.92;101236.17;1809136;78;20157;-40
2023/02/14 12:14:10;;;;;;;;;;;;;;;4.20;74.60;101236.63;1823578;78;20170;-42
2023/02/14 12:16:42;;;;;;;;;;;;;;;4.06;74.72;101244.52;1833076;76;20154;-45
2023/02/14 12:19:20;;;;;;;;;;;;;;;3.95;74.79;101248.91;1827346;77;20197;-44
2023/02/14 12:21:49;;;;;;;;;;;;;;;3.88;74.64;101239.83;1814632;77;20125;-41
2023/02/14 12:24:18;;;;;;;;;;;;;;;3.81;74.87;101241.58;1803587;79;20610;-42
2023/02/14 12:26:56;;;;;;;;;;;;;;;3.71;74.54;101238.14;1815751;78;20146;-44
2023/02/14 12:29:28;;;;;;;;;;;;;;;3.66;74.49;101230.77;1805343;78;20149;-42
2023/02/14 12:31:57;;;;;;;;;;;;;;;3.63;74.59;101235.97;1805384;78;20184;-42
2023/02/14 12:34:25;;;;;;;;;;;;;;;3.58;74.52;101220.78;1803459;80;20121;-41
2023/02/14 12:37:13;;;;;;;;;;;;;;;3.55;74.42;101224.72;1803508;78;20159;-41
2023/02/14 12:39:54;;;;;;;;;;;;;;;3.51;74.50;101213.44;1803725;77;20124;-43
2023/02/14 12:42:38;;;;;;;;;;;;;;;3.41;75.08;101208.70;1828903;77;20153;-41
2023/02/14 12:45:13;;;;;;;;;;;;;;;3.31;75.32;101209.57;1804399;77;20109;-46
2023/02/14 12:47:44;;;;;;;;;;;;;;;3.24;75.36;101205.24;1803781;77;20125;-40
2023/02/14 12:50:29;;;;;;;;;;;;;;;3.20;75.30;101201.77;1804126;77;20155;-47
2023/02/14 12:53:10;;;;;;;;;;;;;;;3.20;75.54;101187.91;1831135;78;20114;-44
2023/02/14 12:55:42;;;;;;;;;;;;;;;3.09;75.77;101189.22;1833557;76;20118;-42
2023/02/14 12:58:15;;;;;;;;;;;;;;;3.02;76.24;101188.34;1832243;76;20157;-44
2023/02/14 13:00:47;;;;;;;;;;;;;;;2.96;76.28;101183.59;1836201;77;20103;-44
2023/02/14 13:03:19;;;;;;;;;;;;;;;2.96;76.25;101180.55;1841586;78;20175;-42
2023/02/14 13:06:05;;;;;;;;;;;;;;;2.95;76.54;101171.03;1827079;77;20119;-42
2023/02/14 13:08:37;;;;;;;;;;;;;;;2.96;76.46;101168.84;1841477;78;20158;-45
2023/02/14 13:11:06;;;;;;;;;;;;;;;2.94;76.54;101166.68;1843051;78;20115;-44
2023/02/14 13:13:54;;;;;;;;;;;;;;;2.97;76.38;101164.09;1858833;76;20179;-42
2023/02/14 13:16:30;;;;;;;;;;;;;;;2.98;76.21;101165.80;1885647;76;20121;-44
2023/02/14 13:19:08;;;;;;;;;;;;;;;3.05;76.19;101159.73;1885628;76;20104;-42
2023/02/14 13:21:37;;;;;;;;;;;;;;;3.03;76.29;101158.02;1853745;76;20127;-45
2023/02/14 13:24:19;;;;;;;;;;;;;;;3.02;76.47;101159.72;1841411;78;20224;-42